Weather at Miami International Airport

Public forecast

Using degrees Fahrenheit for public forecast. Weather courtesy of forecast.io.

Current aviation weather report (METAR) for Miami International Airport

Retrieved 2021/05/16 05:53 UTC (56 minutes ago):

KMIA 160553Z 04007KT 10SM FEW035 BKN250 25/17 A3007 RMK AO2 SLP183 T02500167 10267 20244 58004

Aviation forecast (TAF) for Miami International Airport

Retrieved 2021/05/16 06:22 UTC (27 minutes ago):

TAF KMIA 160520Z 1606/1712 06008KT P6SM FEW035 SCT050 BKN250 FM161500 07015G25KT P6SM SCT035 SCT060 FM170000 08010KT P6SM FEW040 SCT060